sensor_id;sensor_type;location;lat;lon;timestamp;P1;durP1;ratioP1;P2;durP2;ratioP2
23402;SDS011;11874;48.228;11.684;2023-01-19T00:01:28;17.15;;;10.05;;
23402;SDS011;11874;48.228;11.684;2023-01-19T00:03:56;17.42;;;9.88;;
23402;SDS011;11874;48.228;11.684;2023-01-19T00:06:24;17.63;;;9.68;;
23402;SDS011;11874;48.228;11.684;2023-01-19T00:08:53;15.38;;;9.13;;
23402;SDS011;11874;48.228;11.684;2023-01-19T00:11:21;16.73;;;9.60;;
23402;SDS011;11874;48.228;11.684;2023-01-19T00:13:49;15.50;;;9.57;;
23402;SDS011;11874;48.228;11.684;2023-01-19T00:16:19;19.25;;;10.27;;
23402;SDS011;11874;48.228;11.684;2023-01-19T00:18:49;17.13;;;9.82;;
23402;SDS011;11874;48.228;11.684;2023-01-19T00:21:18;17.48;;;9.75;;
23402;SDS011;11874;48.228;11.684;2023-01-19T00:23:47;16.58;;;10.13;;
23402;SDS011;11874;48.228;11.684;2023-01-19T00:26:19;16.45;;;10.07;;
23402;SDS011;11874;48.228;11.684;2023-01-19T00:28:48;17.35;;;9.88;;
23402;SDS011;11874;48.228;11.684;2023-01-19T00:31:16;14.85;;;10.00;;
23402;SDS011;11874;48.228;11.684;2023-01-19T00:33:46;21.85;;;9.48;;
23402;SDS011;11874;48.228;11.684;2023-01-19T00:36:16;14.23;;;9.82;;
23402;SDS011;11874;48.228;11.684;2023-01-19T00:38:45;17.98;;;9.55;;
23402;SDS011;11874;48.228;11.684;2023-01-19T00:41:13;15.05;;;9.88;;
23402;SDS011;11874;48.228;11.684;2023-01-19T00:43:42;16.05;;;9.50;;
23402;SDS011;11874;48.228;11.684;2023-01-19T00:46:09;14.23;;;8.48;;
23402;SDS011;11874;48.228;11.684;2023-01-19T00:48:37;15.90;;;9.27;;
23402;SDS011;11874;48.228;11.684;2023-01-19T00:51:04;14.48;;;8.85;;
23402;SDS011;11874;48.228;11.684;2023-01-19T00:53:32;14.18;;;7.32;;
23402;SDS011;11874;48.228;11.684;2023-01-19T00:56:00;12.27;;;7.78;;
23402;SDS011;11874;48.228;11.684;2023-01-19T00:58:28;13.10;;;7.65;;
23402;SDS011;11874;48.228;11.684;2023-01-19T01:00:57;11.18;;;7.88;;
23402;SDS011;11874;48.228;11.684;2023-01-19T01:03:29;10.93;;;7.35;;
23402;SDS011;11874;48.228;11.684;2023-01-19T01:05:57;12.30;;;7.07;;
23402;SDS011;11874;48.228;11.684;2023-01-19T01:08:24;11.75;;;6.72;;
23402;SDS011;11874;48.228;11.684;2023-01-19T01:10:52;11.07;;;5.85;;
23402;SDS011;11874;48.228;11.684;2023-01-19T01:13:21;11.30;;;6.18;;
23402;SDS011;11874;48.228;11.684;2023-01-19T01:15:53;10.15;;;6.55;;
23402;SDS011;11874;48.228;11.684;2023-01-19T01:18:23;9.48;;;5.95;;
23402;SDS011;11874;48.228;11.684;2023-01-19T01:20:51;11.23;;;7.00;;
23402;SDS011;11874;48.228;11.684;2023-01-19T01:23:21;13.13;;;6.55;;
23402;SDS011;11874;48.228;11.684;2023-01-19T01:25:49;10.73;;;6.88;;
23402;SDS011;11874;48.228;11.684;2023-01-19T01:28:17;9.18;;;6.10;;
23402;SDS011;11874;48.228;11.684;2023-01-19T01:30:45;10.43;;;6.70;;
23402;SDS011;11874;48.228;11.684;2023-01-19T01:33:13;14.18;;;6.63;;
23402;SDS011;11874;48.228;11.684;2023-01-19T01:36:02;13.35;;;6.28;;
23402;SDS011;11874;48.228;11.684;2023-01-19T01:38:30;12.80;;;7.07;;
23402;SDS011;11874;48.228;11.684;2023-01-19T01:40:58;11.60;;;6.28;;
23402;SDS011;11874;48.228;11.684;2023-01-19T01:43:39;11.20;;;5.88;;
23402;SDS011;11874;48.228;11.684;2023-01-19T01:46:10;13.38;;;6.85;;
23402;SDS011;11874;48.228;11.684;2023-01-19T01:48:40;13.70;;;6.43;;
23402;SDS011;11874;48.228;11.684;2023-01-19T01:51:13;11.20;;;6.55;;
23402;SDS011;11874;48.228;11.684;2023-01-19T01:53:54;13.52;;;7.15;;
23402;SDS011;11874;48.228;11.684;2023-01-19T01:56:33;11.25;;;7.10;;
23402;SDS011;11874;48.228;11.684;2023-01-19T01:59:04;11.13;;;6.75;;
23402;SDS011;11874;48.228;11.684;2023-01-19T02:01:33;12.00;;;7.57;;
23402;SDS011;11874;48.228;11.684;2023-01-19T02:04:31;11.18;;;6.38;;
23402;SDS011;11874;48.228;11.684;2023-01-19T02:07:00;11.75;;;7.75;;
23402;SDS011;11874;48.228;11.684;2023-01-19T02:09:45;12.32;;;7.97;;
23402;SDS011;11874;48.228;11.684;2023-01-19T02:12:31;12.20;;;8.00;;
23402;SDS011;11874;48.228;11.684;2023-01-19T02:15:17;12.98;;;7.70;;
23402;SDS011;11874;48.228;11.684;2023-01-19T02:17:46;14.82;;;8.20;;
23402;SDS011;11874;48.228;11.684;2023-01-19T02:20:15;13.80;;;8.25;;
23402;SDS011;11874;48.228;11.684;2023-01-19T02:22:47;17.30;;;11.23;;
23402;SDS011;11874;48.228;11.684;2023-01-19T02:25:18;16.95;;;9.68;;
23402;SDS011;11874;48.228;11.684;2023-01-19T02:27:46;13.85;;;9.00;;
23402;SDS011;11874;48.228;11.684;2023-01-19T02:30:15;15.82;;;9.52;;
23402;SDS011;11874;48.228;11.684;2023-01-19T02:32:44;16.17;;;9.18;;
23402;SDS011;11874;48.228;11.684;2023-01-19T02:35:12;16.25;;;10.07;;
23402;SDS011;11874;48.228;11.684;2023-01-19T02:37:40;15.05;;;8.98;;
23402;SDS011;11874;48.228;11.684;2023-01-19T02:40:10;14.20;;;8.75;;
23402;SDS011;11874;48.228;11.684;2023-01-19T02:42:42;16.85;;;10.07;;
23402;SDS011;11874;48.228;11.684;2023-01-19T02:45:13;16.05;;;9.88;;
23402;SDS011;11874;48.228;11.684;2023-01-19T02:47:44;16.50;;;9.88;;
23402;SDS011;11874;48.228;11.684;2023-01-19T02:50:34;13.98;;;7.85;;
23402;SDS011;11874;48.228;11.684;2023-01-19T02:55:54;14.10;;;7.28;;
23402;SDS011;11874;48.228;11.684;2023-01-19T02:58:29;10.63;;;7.05;;
23402;SDS011;11874;48.228;11.684;2023-01-19T03:01:05;11.07;;;7.40;;
23402;SDS011;11874;48.228;11.684;2023-01-19T03:03:41;10.07;;;6.93;;
23402;SDS011;11874;48.228;11.684;2023-01-19T03:06:21;12.75;;;6.95;;
23402;SDS011;11874;48.228;11.684;2023-01-19T03:08:57;14.98;;;7.53;;
23402;SDS011;11874;48.228;11.684;2023-01-19T03:11:38;11.80;;;6.78;;
23402;SDS011;11874;48.228;11.684;2023-01-19T03:14:15;12.25;;;7.20;;
23402;SDS011;11874;48.228;11.684;2023-01-19T03:16:49;16.20;;;7.65;;
23402;SDS011;11874;48.228;11.684;2023-01-19T03:19:21;12.80;;;7.55;;
23402;SDS011;11874;48.228;11.684;2023-01-19T03:21:53;11.68;;;7.90;;
23402;SDS011;11874;48.228;11.684;2023-01-19T03:24:24;9.40;;;6.13;;
23402;SDS011;11874;48.228;11.684;2023-01-19T03:26:57;13.05;;;7.88;;
23402;SDS011;11874;48.228;11.684;2023-01-19T03:29:30;11.07;;;7.05;;
23402;SDS011;11874;48.228;11.684;2023-01-19T03:32:02;10.32;;;6.55;;
23402;SDS011;11874;48.228;11.684;2023-01-19T03:34:34;9.57;;;7.07;;
23402;SDS011;11874;48.228;11.684;2023-01-19T03:37:05;10.57;;;6.30;;
23402;SDS011;11874;48.228;11.684;2023-01-19T03:39:36;11.20;;;6.82;;
23402;SDS011;11874;48.228;11.684;2023-01-19T03:42:05;7.85;;;5.13;;
23402;SDS011;11874;48.228;11.684;2023-01-19T03:44:37;7.93;;;4.68;;
23402;SDS011;11874;48.228;11.684;2023-01-19T03:47:07;9.40;;;6.22;;
23402;SDS011;11874;48.228;11.684;2023-01-19T03:49:37;10.57;;;6.65;;
23402;SDS011;11874;48.228;11.684;2023-01-19T03:52:08;10.18;;;6.70;;
23402;SDS011;11874;48.228;11.684;2023-01-19T03:54:36;10.55;;;6.30;;
23402;SDS011;11874;48.228;11.684;2023-01-19T03:57:04;10.00;;;6.18;;
23402;SDS011;11874;48.228;11.684;2023-01-19T03:59:32;9.65;;;6.32;;
23402;SDS011;11874;48.228;11.684;2023-01-19T04:02:01;9.38;;;6.97;;
23402;SDS011;11874;48.228;11.684;2023-01-19T04:04:29;9.55;;;6.55;;
23402;SDS011;11874;48.228;11.684;2023-01-19T04:06:57;8.82;;;6.13;;
23402;SDS011;11874;48.228;11.684;2023-01-19T04:09:25;9.57;;;6.45;;
23402;SDS011;11874;48.228;11.684;2023-01-19T04:11:53;12.52;;;7.20;;
23402;SDS011;11874;48.228;11.684;2023-01-19T04:14:21;11.05;;;6.95;;
23402;SDS011;11874;48.228;11.684;2023-01-19T04:16:49;13.27;;;7.10;;
23402;SDS011;11874;48.228;11.684;2023-01-19T04:19:18;10.95;;;6.68;;
23402;SDS011;11874;48.228;11.684;2023-01-19T04:21:46;10.45;;;7.18;;
23402;SDS011;11874;48.228;11.684;2023-01-19T04:24:15;10.65;;;7.07;;
23402;SDS011;11874;48.228;11.684;2023-01-19T04:26:43;9.93;;;6.72;;
23402;SDS011;11874;48.228;11.684;2023-01-19T04:29:11;14.15;;;7.00;;
23402;SDS011;11874;48.228;11.684;2023-01-19T04:31:40;9.68;;;7.25;;
23402;SDS011;11874;48.228;11.684;2023-01-19T04:34:07;11.40;;;6.20;;
23402;SDS011;11874;48.228;11.684;2023-01-19T04:36:37;11.40;;;7.65;;
23402;SDS011;11874;48.228;11.684;2023-01-19T04:39:04;11.75;;;7.32;;
23402;SDS011;11874;48.228;11.684;2023-01-19T04:41:34;13.30;;;7.50;;
23402;SDS011;11874;48.228;11.684;2023-01-19T04:44:02;13.85;;;7.47;;
23402;SDS011;11874;48.228;11.684;2023-01-19T04:46:31;10.20;;;7.55;;
23402;SDS011;11874;48.228;11.684;2023-01-19T04:48:59;12.10;;;7.60;;
23402;SDS011;11874;48.228;11.684;2023-01-19T04:51:27;11.88;;;7.72;;
23402;SDS011;11874;48.228;11.684;2023-01-19T04:53:56;12.40;;;7.95;;
23402;SDS011;11874;48.228;11.684;2023-01-19T04:56:24;13.07;;;8.13;;
23402;SDS011;11874;48.228;11.684;2023-01-19T04:58:51;14.27;;;8.60;;
23402;SDS011;11874;48.228;11.684;2023-01-19T05:01:19;13.05;;;8.07;;
23402;SDS011;11874;48.228;11.684;2023-01-19T05:03:48;13.07;;;8.02;;
23402;SDS011;11874;48.228;11.684;2023-01-19T05:06:16;12.40;;;8.43;;
23402;SDS011;11874;48.228;11.684;2023-01-19T05:08:43;11.70;;;7.85;;
23402;SDS011;11874;48.228;11.684;2023-01-19T05:11:13;11.98;;;7.88;;
23402;SDS011;11874;48.228;11.684;2023-01-19T05:13:40;16.00;;;9.30;;
23402;SDS011;11874;48.228;11.684;2023-01-19T05:16:08;12.88;;;8.52;;
23402;SDS011;11874;48.228;11.684;2023-01-19T05:18:37;17.15;;;9.35;;
23402;SDS011;11874;48.228;11.684;2023-01-19T05:21:05;17.42;;;9.77;;
23402;SDS011;11874;48.228;11.684;2023-01-19T05:23:33;13.27;;;8.75;;
23402;SDS011;11874;48.228;11.684;2023-01-19T05:26:01;13.23;;;9.07;;
23402;SDS011;11874;48.228;11.684;2023-01-19T05:28:31;13.73;;;9.10;;
23402;SDS011;11874;48.228;11.684;2023-01-19T05:30:59;15.10;;;9.38;;
23402;SDS011;11874;48.228;11.684;2023-01-19T05:33:27;12.80;;;8.98;;
23402;SDS011;11874;48.228;11.684;2023-01-19T05:35:55;15.40;;;8.50;;
23402;SDS011;11874;48.228;11.684;2023-01-19T05:38:23;16.58;;;9.85;;
23402;SDS011;11874;48.228;11.684;2023-01-19T05:41:00;14.85;;;8.95;;
23402;SDS011;11874;48.228;11.684;2023-01-19T05:43:28;14.25;;;8.95;;
23402;SDS011;11874;48.228;11.684;2023-01-19T05:45:57;13.93;;;8.88;;
23402;SDS011;11874;48.228;11.684;2023-01-19T05:48:25;14.98;;;9.20;;
23402;SDS011;11874;48.228;11.684;2023-01-19T05:50:55;15.98;;;9.23;;
23402;SDS011;11874;48.228;11.684;2023-01-19T05:53:24;15.80;;;9.27;;
23402;SDS011;11874;48.228;11.684;2023-01-19T05:55:52;17.25;;;9.27;;
23402;SDS011;11874;48.228;11.684;2023-01-19T05:58:24;17.90;;;10.10;;
23402;SDS011;11874;48.228;11.684;2023-01-19T06:00:52;18.30;;;10.20;;
23402;SDS011;11874;48.228;11.684;2023-01-19T06:03:21;19.27;;;10.07;;
23402;SDS011;11874;48.228;11.684;2023-01-19T06:05:49;18.70;;;10.10;;
23402;SDS011;11874;48.228;11.684;2023-01-19T06:08:17;17.88;;;9.80;;
23402;SDS011;11874;48.228;11.684;2023-01-19T06:10:45;17.33;;;10.45;;
23402;SDS011;11874;48.228;11.684;2023-01-19T06:13:13;16.00;;;8.88;;
23402;SDS011;11874;48.228;11.684;2023-01-19T06:15:41;18.25;;;10.32;;
23402;SDS011;11874;48.228;11.684;2023-01-19T06:18:10;16.73;;;9.30;;
23402;SDS011;11874;48.228;11.684;2023-01-19T06:20:39;13.80;;;10.27;;
23402;SDS011;11874;48.228;11.684;2023-01-19T06:23:07;17.90;;;9.57;;
23402;SDS011;11874;48.228;11.684;2023-01-19T06:25:35;16.20;;;9.57;;
23402;SDS011;11874;48.228;11.684;2023-01-19T06:28:03;13.30;;;9.25;;
23402;SDS011;11874;48.228;11.684;2023-01-19T06:30:31;18.70;;;9.93;;
23402;SDS011;11874;48.228;11.684;2023-01-19T06:32:59;15.07;;;9.18;;
23402;SDS011;11874;48.228;11.684;2023-01-19T06:35:27;15.30;;;10.05;;
23402;SDS011;11874;48.228;11.684;2023-01-19T06:37:57;15.23;;;9.68;;
23402;SDS011;11874;48.228;11.684;2023-01-19T06:40:25;15.63;;;9.90;;
23402;SDS011;11874;48.228;11.684;2023-01-19T06:42:53;17.02;;;10.60;;
23402;SDS011;11874;48.228;11.684;2023-01-19T06:45:20;17.40;;;9.80;;
23402;SDS011;11874;48.228;11.684;2023-01-19T06:47:48;16.92;;;10.23;;
23402;SDS011;11874;48.228;11.684;2023-01-19T06:50:16;18.42;;;9.70;;
23402;SDS011;11874;48.228;11.684;2023-01-19T06:52:44;15.82;;;9.95;;
23402;SDS011;11874;48.228;11.684;2023-01-19T06:55:13;14.38;;;10.05;;
23402;SDS011;11874;48.228;11.684;2023-01-19T06:57:42;18.33;;;10.18;;
23402;SDS011;11874;48.228;11.684;2023-01-19T07:00:10;17.02;;;10.63;;
23402;SDS011;11874;48.228;11.684;2023-01-19T07:02:40;17.25;;;10.15;;
23402;SDS011;11874;48.228;11.684;2023-01-19T07:05:09;15.43;;;9.90;;
23402;SDS011;11874;48.228;11.684;2023-01-19T07:07:39;17.60;;;10.52;;
23402;SDS011;11874;48.228;11.684;2023-01-19T07:10:09;17.15;;;10.80;;
23402;SDS011;11874;48.228;11.684;2023-01-19T07:12:39;15.95;;;9.98;;
23402;SDS011;11874;48.228;11.684;2023-01-19T07:15:09;19.63;;;9.88;;
23402;SDS011;11874;48.228;11.684;2023-01-19T07:17:37;16.88;;;10.27;;
23402;SDS011;11874;48.228;11.684;2023-01-19T07:20:07;15.07;;;9.77;;
23402;SDS011;11874;48.228;11.684;2023-01-19T07:22:38;16.03;;;10.37;;
23402;SDS011;11874;48.228;11.684;2023-01-19T07:25:06;16.30;;;9.35;;
23402;SDS011;11874;48.228;11.684;2023-01-19T07:27:35;19.27;;;10.10;;
23402;SDS011;11874;48.228;11.684;2023-01-19T07:30:04;17.67;;;10.00;;
23402;SDS011;11874;48.228;11.684;2023-01-19T07:32:33;18.33;;;10.05;;
23402;SDS011;11874;48.228;11.684;2023-01-19T07:35:01;18.15;;;10.23;;
23402;SDS011;11874;48.228;11.684;2023-01-19T07:37:29;15.45;;;10.15;;
23402;SDS011;11874;48.228;11.684;2023-01-19T07:39:57;16.80;;;10.32;;
23402;SDS011;11874;48.228;11.684;2023-01-19T07:42:24;14.88;;;10.18;;
23402;SDS011;11874;48.228;11.684;2023-01-19T07:44:52;18.05;;;9.35;;
23402;SDS011;11874;48.228;11.684;2023-01-19T07:47:22;13.40;;;9.73;;
23402;SDS011;11874;48.228;11.684;2023-01-19T07:49:49;14.57;;;9.88;;
23402;SDS011;11874;48.228;11.684;2023-01-19T07:52:18;14.75;;;9.93;;
23402;SDS011;11874;48.228;11.684;2023-01-19T07:54:46;17.35;;;10.15;;
23402;SDS011;11874;48.228;11.684;2023-01-19T07:57:16;17.85;;;10.25;;
23402;SDS011;11874;48.228;11.684;2023-01-19T07:59:44;15.57;;;10.32;;
23402;SDS011;11874;48.228;11.684;2023-01-19T08:02:12;14.75;;;10.13;;
23402;SDS011;11874;48.228;11.684;2023-01-19T08:04:43;14.10;;;9.57;;
23402;SDS011;11874;48.228;11.684;2023-01-19T08:07:14;17.15;;;10.32;;
23402;SDS011;11874;48.228;11.684;2023-01-19T08:09:42;15.10;;;10.02;;
23402;SDS011;11874;48.228;11.684;2023-01-19T08:12:10;21.20;;;10.02;;
23402;SDS011;11874;48.228;11.684;2023-01-19T08:14:37;15.57;;;9.48;;
23402;SDS011;11874;48.228;11.684;2023-01-19T08:17:05;14.13;;;9.27;;
23402;SDS011;11874;48.228;11.684;2023-01-19T08:19:33;14.57;;;9.27;;
23402;SDS011;11874;48.228;11.684;2023-01-19T08:22:02;16.45;;;9.73;;
23402;SDS011;11874;48.228;11.684;2023-01-19T08:24:31;20.95;;;9.60;;
23402;SDS011;11874;48.228;11.684;2023-01-19T08:26:59;15.85;;;9.38;;
23402;SDS011;11874;48.228;11.684;2023-01-19T08:29:28;14.07;;;9.77;;
23402;SDS011;11874;48.228;11.684;2023-01-19T08:31:57;13.18;;;8.93;;
23402;SDS011;11874;48.228;11.684;2023-01-19T08:34:27;14.13;;;9.13;;
23402;SDS011;11874;48.228;11.684;2023-01-19T08:36:56;16.40;;;9.98;;
23402;SDS011;11874;48.228;11.684;2023-01-19T08:39:25;15.80;;;8.75;;
23402;SDS011;11874;48.228;11.684;2023-01-19T08:41:53;14.45;;;9.02;;
23402;SDS011;11874;48.228;11.684;2023-01-19T08:44:21;15.10;;;9.80;;
23402;SDS011;11874;48.228;11.684;2023-01-19T08:46:49;15.75;;;8.73;;
23402;SDS011;11874;48.228;11.684;2023-01-19T08:49:17;17.35;;;8.75;;
23402;SDS011;11874;48.228;11.684;2023-01-19T08:51:45;14.30;;;8.23;;
23402;SDS011;11874;48.228;11.684;2023-01-19T08:54:14;12.98;;;8.80;;
23402;SDS011;11874;48.228;11.684;2023-01-19T08:56:45;13.98;;;9.07;;
23402;SDS011;11874;48.228;11.684;2023-01-19T08:59:13;13.68;;;8.57;;
23402;SDS011;11874;48.228;11.684;2023-01-19T09:01:42;17.08;;;8.82;;
23402;SDS011;11874;48.228;11.684;2023-01-19T09:04:10;15.25;;;8.90;;
23402;SDS011;11874;48.228;11.684;2023-01-19T09:06:37;12.52;;;8.27;;
23402;SDS011;11874;48.228;11.684;2023-01-19T09:09:05;13.75;;;8.43;;
23402;SDS011;11874;48.228;11.684;2023-01-19T09:11:33;12.52;;;8.40;;
23402;SDS011;11874;48.228;11.684;2023-01-19T09:14:03;13.52;;;8.35;;
23402;SDS011;11874;48.228;11.684;2023-01-19T09:16:31;16.25;;;9.15;;
23402;SDS011;11874;48.228;11.684;2023-01-19T09:18:59;15.30;;;8.85;;
23402;SDS011;11874;48.228;11.684;2023-01-19T09:21:27;13.98;;;8.40;;
23402;SDS011;11874;48.228;11.684;2023-01-19T09:23:55;13.35;;;8.13;;
23402;SDS011;11874;48.228;11.684;2023-01-19T09:26:23;12.88;;;8.27;;
23402;SDS011;11874;48.228;11.684;2023-01-19T09:28:51;12.20;;;7.80;;
23402;SDS011;11874;48.228;11.684;2023-01-19T09:31:20;14.38;;;7.82;;
23402;SDS011;11874;48.228;11.684;2023-01-19T09:33:48;11.07;;;8.18;;
23402;SDS011;11874;48.228;11.684;2023-01-19T09:36:16;14.07;;;8.45;;
23402;SDS011;11874;48.228;11.684;2023-01-19T09:38:44;13.18;;;8.43;;
23402;SDS011;11874;48.228;11.684;2023-01-19T09:41:15;15.13;;;9.15;;
23402;SDS011;11874;48.228;11.684;2023-01-19T09:43:47;12.10;;;8.07;;
23402;SDS011;11874;48.228;11.684;2023-01-19T09:46:20;17.23;;;9.10;;
23402;SDS011;11874;48.228;11.684;2023-01-19T09:48:54;14.00;;;7.95;;
23402;SDS011;11874;48.228;11.684;2023-01-19T09:51:24;13.70;;;9.07;;
23402;SDS011;11874;48.228;11.684;2023-01-19T09:53:59;14.18;;;8.82;;
23402;SDS011;11874;48.228;11.684;2023-01-19T09:56:32;13.95;;;8.57;;
23402;SDS011;11874;48.228;11.684;2023-01-19T09:59:00;15.00;;;7.90;;
23402;SDS011;11874;48.228;11.684;2023-01-19T10:01:35;13.43;;;8.80;;
23402;SDS011;11874;48.228;11.684;2023-01-19T10:04:10;11.73;;;7.63;;
23402;SDS011;11874;48.228;11.684;2023-01-19T10:07:15;11.73;;;7.90;;
23402;SDS011;11874;48.228;11.684;2023-01-19T10:10:01;11.85;;;8.30;;
23402;SDS011;11874;48.228;11.684;2023-01-19T10:12:43;12.65;;;7.63;;
23402;SDS011;11874;48.228;11.684;2023-01-19T10:15:24;11.68;;;7.32;;
23402;SDS011;11874;48.228;11.684;2023-01-19T10:18:05;10.15;;;7.25;;
23402;SDS011;11874;48.228;11.684;2023-01-19T10:20:40;13.02;;;7.72;;
23402;SDS011;11874;48.228;11.684;2023-01-19T10:23:15;13.05;;;7.53;;
23402;SDS011;11874;48.228;11.684;2023-01-19T10:25:59;12.43;;;7.22;;
23402;SDS011;11874;48.228;11.684;2023-01-19T10:28:33;13.52;;;8.05;;
23402;SDS011;11874;48.228;11.684;2023-01-19T10:31:03;11.35;;;7.28;;
23402;SDS011;11874;48.228;11.684;2023-01-19T10:33:34;11.75;;;7.30;;
23402;SDS011;11874;48.228;11.684;2023-01-19T10:36:03;10.43;;;6.93;;
23402;SDS011;11874;48.228;11.684;2023-01-19T10:38:32;9.95;;;6.78;;
23402;SDS011;11874;48.228;11.684;2023-01-19T10:41:00;12.07;;;7.20;;
23402;SDS011;11874;48.228;11.684;2023-01-19T10:43:37;10.15;;;7.18;;
23402;SDS011;11874;48.228;11.684;2023-01-19T10:46:13;8.70;;;6.28;;
23402;SDS011;11874;48.228;11.684;2023-01-19T10:48:50;11.77;;;6.82;;
23402;SDS011;11874;48.228;11.684;2023-01-19T10:51:19;10.70;;;6.25;;
23402;SDS011;11874;48.228;11.684;2023-01-19T10:53:55;11.90;;;6.22;;
23402;SDS011;11874;48.228;11.684;2023-01-19T10:56:26;10.52;;;6.75;;
23402;SDS011;11874;48.228;11.684;2023-01-19T10:58:57;7.85;;;5.93;;
23402;SDS011;11874;48.228;11.684;2023-01-19T11:01:27;10.25;;;6.50;;
23402;SDS011;11874;48.228;11.684;2023-01-19T11:04:17;11.65;;;6.32;;
23402;SDS011;11874;48.228;11.684;2023-01-19T11:06:47;8.52;;;5.50;;
23402;SDS011;11874;48.228;11.684;2023-01-19T11:09:16;8.27;;;5.82;;
23402;SDS011;11874;48.228;11.684;2023-01-19T11:11:46;8.15;;;5.32;;
23402;SDS011;11874;48.228;11.684;2023-01-19T11:14:17;8.60;;;6.03;;
23402;SDS011;11874;48.228;11.684;2023-01-19T11:16:47;9.82;;;6.05;;
23402;SDS011;11874;48.228;11.684;2023-01-19T11:19:19;9.60;;;6.28;;
23402;SDS011;11874;48.228;11.684;2023-01-19T11:21:52;10.88;;;6.50;;
23402;SDS011;11874;48.228;11.684;2023-01-19T11:24:35;8.48;;;4.93;;
23402;SDS011;11874;48.228;11.684;2023-01-19T11:27:03;8.27;;;5.45;;
23402;SDS011;11874;48.228;11.684;2023-01-19T11:29:31;8.02;;;5.55;;
23402;SDS011;11874;48.228;11.684;2023-01-19T11:32:08;10.10;;;5.50;;
23402;SDS011;11874;48.228;11.684;2023-01-19T11:34:39;8.93;;;4.93;;
23402;SDS011;11874;48.228;11.684;2023-01-19T11:37:22;7.45;;;4.78;;
23402;SDS011;11874;48.228;11.684;2023-01-19T11:39:54;7.50;;;5.13;;
23402;SDS011;11874;48.228;11.684;2023-01-19T11:42:24;7.03;;;5.38;;
23402;SDS011;11874;48.228;11.684;2023-01-19T11:44:57;8.50;;;5.15;;
23402;SDS011;11874;48.228;11.684;2023-01-19T11:47:29;7.80;;;5.35;;
23402;SDS011;11874;48.228;11.684;2023-01-19T11:50:06;8.35;;;4.82;;
23402;SDS011;11874;48.228;11.684;2023-01-19T11:52:41;7.28;;;4.65;;
23402;SDS011;11874;48.228;11.684;2023-01-19T11:55:13;8.82;;;5.32;;
23402;SDS011;11874;48.228;11.684;2023-01-19T11:57:46;8.13;;;5.80;;
23402;SDS011;11874;48.228;11.684;2023-01-19T12:00:23;7.93;;;5.45;;
23402;SDS011;11874;48.228;11.684;2023-01-19T12:02:54;7.00;;;4.63;;
23402;SDS011;11874;48.228;11.684;2023-01-19T12:05:29;7.78;;;4.68;;
23402;SDS011;11874;48.228;11.684;2023-01-19T12:08:00;6.38;;;4.53;;
23402;SDS011;11874;48.228;11.684;2023-01-19T12:10:32;8.23;;;4.78;;
23402;SDS011;11874;48.228;11.684;2023-01-19T12:13:04;8.57;;;5.10;;
23402;SDS011;11874;48.228;11.684;2023-01-19T12:15:33;13.52;;;6.68;;
23402;SDS011;11874;48.228;11.684;2023-01-19T12:18:05;17.67;;;7.70;;
23402;SDS011;11874;48.228;11.684;2023-01-19T12:20:42;15.63;;;7.47;;
23402;SDS011;11874;48.228;11.684;2023-01-19T12:23:16;17.20;;;9.15;;
23402;SDS011;11874;48.228;11.684;2023-01-19T12:25:54;8.98;;;4.93;;
23402;SDS011;11874;48.228;11.684;2023-01-19T12:28:32;6.10;;;3.85;;
23402;SDS011;11874;48.228;11.684;2023-01-19T12:31:03;6.47;;;3.70;;
23402;SDS011;11874;48.228;11.684;2023-01-19T12:33:32;5.32;;;3.42;;
23402;SDS011;11874;48.228;11.684;2023-01-19T12:36:03;5.85;;;4.00;;
23402;SDS011;11874;48.228;11.684;2023-01-19T12:38:43;5.97;;;3.95;;
23402;SDS011;11874;48.228;11.684;2023-01-19T12:41:26;8.00;;;4.32;;
23402;SDS011;11874;48.228;11.684;2023-01-19T12:46:44;5.68;;;3.50;;
23402;SDS011;11874;48.228;11.684;2023-01-19T12:49:18;6.68;;;3.60;;
23402;SDS011;11874;48.228;11.684;2023-01-19T12:51:52;7.07;;;3.90;;
23402;SDS011;11874;48.228;11.684;2023-01-19T12:54:36;5.97;;;4.15;;
23402;SDS011;11874;48.228;11.684;2023-01-19T12:57:14;5.13;;;3.33;;
23402;SDS011;11874;48.228;11.684;2023-01-19T12:59:47;5.47;;;3.78;;
23402;SDS011;11874;48.228;11.684;2023-01-19T13:08:23;4.65;;;3.45;;
23402;SDS011;11874;48.228;11.684;2023-01-19T13:16:59;4.78;;;3.60;;
23402;SDS011;11874;48.228;11.684;2023-01-19T13:19:41;5.22;;;3.05;;
23402;SDS011;11874;48.228;11.684;2023-01-19T13:25:26;6.47;;;3.50;;
23402;SDS011;11874;48.228;11.684;2023-01-19T13:27:56;7.22;;;3.90;;
23402;SDS011;11874;48.228;11.684;2023-01-19T13:30:25;7.05;;;4.10;;
23402;SDS011;11874;48.228;11.684;2023-01-19T13:33:00;5.97;;;4.05;;
23402;SDS011;11874;48.228;11.684;2023-01-19T13:35:32;7.93;;;4.40;;
23402;SDS011;11874;48.228;11.684;2023-01-19T13:38:00;8.07;;;4.18;;
23402;SDS011;11874;48.228;11.684;2023-01-19T13:40:32;10.50;;;4.50;;
23402;SDS011;11874;48.228;11.684;2023-01-19T13:43:05;6.35;;;3.50;;
23402;SDS011;11874;48.228;11.684;2023-01-19T13:45:44;5.70;;;4.30;;
23402;SDS011;11874;48.228;11.684;2023-01-19T13:48:17;6.10;;;3.80;;
23402;SDS011;11874;48.228;11.684;2023-01-19T13:50:57;6.25;;;3.83;;
23402;SDS011;11874;48.228;11.684;2023-01-19T13:53:26;5.22;;;3.60;;
23402;SDS011;11874;48.228;11.684;2023-01-19T13:56:07;6.18;;;3.60;;
23402;SDS011;11874;48.228;11.684;2023-01-19T13:59:00;4.03;;;2.97;;
23402;SDS011;11874;48.228;11.684;2023-01-19T14:01:36;6.43;;;3.22;;
23402;SDS011;11874;48.228;11.684;2023-01-19T14:04:05;6.65;;;3.75;;
23402;SDS011;11874;48.228;11.684;2023-01-19T14:06:51;5.35;;;3.25;;
23402;SDS011;11874;48.228;11.684;2023-01-19T14:09:20;7.30;;;3.78;;
23402;SDS011;11874;48.228;11.684;2023-01-19T14:14:35;6.85;;;3.75;;
23402;SDS011;11874;48.228;11.684;2023-01-19T14:17:04;6.68;;;2.75;;
23402;SDS011;11874;48.228;11.684;2023-01-19T14:19:52;5.25;;;2.90;;
23402;SDS011;11874;48.228;11.684;2023-01-19T14:22:35;6.20;;;2.90;;
23402;SDS011;11874;48.228;11.684;2023-01-19T14:27:49;5.35;;;2.80;;
23402;SDS011;11874;48.228;11.684;2023-01-19T14:30:19;4.65;;;2.50;;
23402;SDS011;11874;48.228;11.684;2023-01-19T14:32:50;4.65;;;2.75;;
23402;SDS011;11874;48.228;11.684;2023-01-19T14:35:22;6.55;;;2.58;;
23402;SDS011;11874;48.228;11.684;2023-01-19T14:37:51;3.85;;;2.65;;
23402;SDS011;11874;48.228;11.684;2023-01-19T14:40:19;4.53;;;2.90;;
23402;SDS011;11874;48.228;11.684;2023-01-19T14:42:51;5.38;;;2.75;;
23402;SDS011;11874;48.228;11.684;2023-01-19T14:45:21;7.93;;;3.67;;
23402;SDS011;11874;48.228;11.684;2023-01-19T14:47:55;5.32;;;3.25;;
23402;SDS011;11874;48.228;11.684;2023-01-19T14:50:25;5.78;;;3.55;;
23402;SDS011;11874;48.228;11.684;2023-01-19T14:52:56;6.60;;;3.60;;
23402;SDS011;11874;48.228;11.684;2023-01-19T14:55:31;4.00;;;3.25;;
23402;SDS011;11874;48.228;11.684;2023-01-19T14:58:08;5.93;;;3.38;;
23402;SDS011;11874;48.228;11.684;2023-01-19T15:00:37;4.70;;;3.33;;
23402;SDS011;11874;48.228;11.684;2023-01-19T15:03:05;5.47;;;3.20;;
23402;SDS011;11874;48.228;11.684;2023-01-19T15:05:35;6.75;;;3.63;;
23402;SDS011;11874;48.228;11.684;2023-01-19T15:08:03;4.70;;;3.10;;
23402;SDS011;11874;48.228;11.684;2023-01-19T15:10:32;5.25;;;3.25;;
23402;SDS011;11874;48.228;11.684;2023-01-19T15:13:02;4.75;;;2.90;;